createdAt,value
2022-08-16T00:02:56.101Z,3.33
2022-08-16T00:05:57.998Z,2.77
2022-08-16T00:08:59.489Z,2.30
2022-08-16T00:12:01.377Z,2.47
2022-08-16T00:15:11.771Z,2.20
2022-08-16T00:18:16.002Z,2.20
2022-08-16T00:21:18.194Z,2.30
2022-08-16T00:24:32.434Z,2.23
2022-08-16T00:27:34.404Z,2.30
2022-08-16T00:30:36.354Z,2.20
2022-08-16T00:33:40.880Z,2.33
2022-08-16T00:36:55.895Z,2.57
2022-08-16T00:39:58.848Z,2.20
2022-08-16T00:43:00.757Z,2.57
2022-08-16T00:46:33.102Z,2.33
2022-08-16T00:49:44.454Z,2.33
2022-08-16T00:52:51.318Z,2.50
2022-08-16T00:55:55.487Z,2.40
2022-08-16T00:58:58.177Z,2.40
2022-08-16T01:02:30.112Z,2.47
2022-08-16T01:05:28.503Z,2.53
2022-08-16T01:08:36.167Z,2.70
2022-08-16T01:11:53.836Z,2.87
2022-08-16T01:14:59.278Z,2.50
2022-08-16T01:18:04.220Z,2.60
2022-08-16T01:21:16.143Z,2.57
2022-08-16T01:24:55.156Z,2.50
2022-08-16T01:28:00.390Z,2.43
2022-08-16T01:31:05.280Z,2.90
2022-08-16T01:34:07.186Z,3.00
2022-08-16T01:37:11.802Z,2.50
2022-08-16T01:40:20.596Z,2.90
2022-08-16T01:43:23.832Z,2.73
2022-08-16T01:46:40.148Z,2.60
2022-08-16T01:50:42.963Z,2.63
2022-08-16T01:53:17.692Z,2.90
2022-08-16T01:56:37.565Z,2.80
2022-08-16T01:59:39.649Z,3.00
2022-08-16T02:02:43.163Z,2.80
2022-08-16T02:05:46.763Z,2.97
2022-08-16T02:08:55.052Z,2.50
2022-08-16T02:11:59.369Z,2.53
2022-08-16T02:15:27.025Z,3.00
2022-08-16T02:18:30.226Z,3.37
2022-08-16T02:21:33.654Z,2.83
2022-08-16T02:24:41.331Z,3.00
2022-08-16T02:27:50.790Z,2.90
2022-08-16T02:30:55.669Z,3.00
2022-08-16T02:33:57.213Z,3.20
2022-08-16T02:37:08.697Z,2.93
2022-08-16T02:40:12.089Z,3.33
2022-08-16T02:43:17.760Z,3.10
2022-08-16T02:46:20.145Z,3.17
2022-08-16T02:49:58.007Z,3.20
2022-08-16T02:52:54.793Z,3.13
2022-08-16T02:55:57.833Z,3.00
2022-08-16T02:59:01.298Z,2.97
2022-08-16T03:02:08.252Z,2.70
2022-08-16T03:05:13.374Z,3.20
2022-08-16T03:08:51.148Z,3.00
2022-08-16T03:11:39.784Z,2.70
2022-08-16T03:14:41.248Z,3.20
2022-08-16T03:17:53.188Z,2.97
2022-08-16T03:20:56.764Z,3.10
2022-08-16T03:23:58.573Z,3.20
2022-08-16T03:27:02.889Z,3.27
2022-08-16T03:30:15.974Z,3.30
2022-08-16T03:33:20.710Z,3.00
2022-08-16T03:36:32.783Z,3.20
2022-08-16T03:39:42.809Z,3.00
2022-08-16T03:43:18.778Z,3.57
2022-08-16T03:46:07.280Z,3.47
2022-08-16T03:49:13.267Z,3.23
2022-08-16T03:52:16.538Z,3.17
2022-08-16T03:55:18.344Z,3.50
2022-08-16T03:58:22.165Z,3.50
2022-08-16T04:01:29.275Z,3.20
2022-08-16T04:04:33.992Z,3.43
2022-08-16T04:07:38.745Z,3.47
2022-08-16T04:10:41.029Z,3.40
2022-08-16T04:14:00.236Z,3.27
2022-08-16T04:17:09.985Z,3.40
2022-08-16T04:20:31.700Z,3.33
2022-08-16T04:23:38.827Z,3.40
2022-08-16T04:26:46.301Z,3.30
2022-08-16T04:29:52.140Z,3.63
2022-08-16T04:32:55.716Z,3.40
2022-08-16T04:35:58.790Z,3.20
2022-08-16T04:39:01.717Z,3.60
2022-08-16T04:42:11.237Z,3.60
2022-08-16T04:45:15.031Z,3.30
2022-08-16T04:48:28.250Z,3.23
2022-08-16T04:51:35.799Z,3.13
2022-08-16T04:54:37.757Z,3.97
2022-08-16T04:57:45.328Z,3.63
2022-08-16T05:00:55.367Z,3.50
2022-08-16T05:04:00.569Z,3.13
2022-08-16T05:07:20.431Z,3.50
2022-08-16T05:10:39.681Z,3.60
2022-08-16T05:13:45.835Z,3.70
2022-08-16T05:16:52.859Z,3.70
2022-08-16T05:19:58.376Z,3.73
2022-08-16T05:23:04.385Z,3.83
2022-08-16T05:26:19.583Z,3.77
2022-08-16T05:29:22.081Z,3.40
2022-08-16T05:32:45.581Z,3.30
2022-08-16T05:35:54.764Z,3.40
2022-08-16T05:39:13.071Z,3.70
2022-08-16T05:42:15.900Z,3.93
2022-08-16T05:45:22.154Z,3.70
2022-08-16T05:48:27.441Z,3.70
2022-08-16T05:51:40.271Z,3.23
2022-08-16T05:54:47.243Z,3.73
2022-08-16T05:57:52.484Z,3.73
2022-08-16T06:00:56.010Z,3.63
2022-08-16T06:03:59.361Z,3.97
2022-08-16T06:07:24.279Z,4.00
2022-08-16T06:10:33.192Z,3.80
2022-08-16T06:13:37.771Z,3.77
2022-08-16T06:16:45.078Z,4.00
2022-08-16T06:19:52.808Z,3.90
2022-08-16T06:22:58.781Z,3.93
2022-08-16T06:26:15.569Z,3.43
2022-08-16T06:29:20.879Z,4.60
2022-08-16T06:32:27.735Z,3.97
2022-08-16T06:35:40.459Z,3.93
2022-08-16T06:38:55.907Z,3.57
2022-08-16T06:42:09.712Z,3.87
2022-08-16T06:45:25.039Z,4.03
2022-08-16T06:48:42.900Z,4.17
2022-08-16T06:51:48.379Z,4.27
2022-08-16T06:54:57.441Z,3.90
2022-08-16T06:58:00.841Z,4.27
2022-08-16T07:01:03.283Z,4.03
2022-08-16T07:04:12.476Z,4.03
2022-08-16T07:07:14.943Z,4.00
2022-08-16T07:10:19.436Z,4.93
2022-08-16T07:14:03.806Z,4.00
2022-08-16T07:16:49.223Z,4.20
2022-08-16T07:20:03.649Z,4.30
2022-08-16T07:23:21.413Z,4.17
2022-08-16T07:26:40.350Z,4.77
2022-08-16T07:29:50.037Z,4.50
2022-08-16T07:32:57.441Z,4.60
2022-08-16T07:35:59.626Z,4.13
2022-08-16T07:39:02.079Z,4.33
2022-08-16T07:42:08.563Z,4.60
2022-08-16T07:45:11.518Z,4.70
2022-08-16T07:48:19.316Z,4.40
2022-08-16T07:51:25.908Z,4.77
2022-08-16T07:54:37.813Z,4.43
2022-08-16T07:57:59.765Z,4.50
2022-08-16T08:01:10.741Z,4.83
2022-08-16T08:04:18.495Z,5.17
2022-08-16T08:07:21.037Z,4.93
2022-08-16T08:10:29.747Z,5.03
2022-08-16T08:13:42.470Z,5.27
2022-08-16T08:16:45.679Z,4.90
2022-08-16T08:19:56.468Z,5.40
2022-08-16T08:23:00.081Z,4.97
2022-08-16T08:26:09.894Z,4.30
2022-08-16T08:29:23.038Z,5.40
2022-08-16T08:32:58.593Z,5.40
2022-08-16T08:35:50.794Z,4.80
2022-08-16T08:38:53.338Z,4.73
2022-08-16T08:41:56.900Z,4.57
2022-08-16T08:44:59.390Z,5.67
2022-08-16T08:48:00.918Z,5.07
2022-08-16T08:51:09.221Z,5.10
2022-08-16T08:54:21.403Z,5.10
2022-08-16T08:57:27.962Z,5.38
2022-08-16T09:00:50.183Z,5.10
2022-08-16T09:03:53.086Z,5.17
2022-08-16T09:06:56.543Z,5.43
2022-08-16T09:10:06.717Z,5.50
2022-08-16T09:13:24.449Z,5.80
2022-08-16T09:17:03.893Z,5.22
2022-08-16T09:19:50.305Z,5.22
2022-08-16T09:22:57.464Z,5.50
2022-08-16T09:26:45.414Z,5.07
2022-08-16T09:29:45.209Z,5.70
2022-08-16T09:32:49.702Z,5.27
2022-08-16T09:35:53.240Z,5.05
2022-08-16T09:38:59.582Z,5.15
2022-08-16T09:42:02.913Z,5.47
2022-08-16T09:45:11.776Z,5.45
2022-08-16T09:48:37.203Z,5.35
2022-08-16T09:51:40.600Z,5.65
2022-08-16T09:54:44.661Z,5.13
2022-08-16T09:57:52.952Z,5.03
2022-08-16T10:00:55.215Z,5.10
2022-08-16T10:04:01.602Z,5.47
2022-08-16T10:07:11.887Z,5.63
2022-08-16T10:10:18.811Z,5.28
2022-08-16T10:13:34.326Z,5.53
2022-08-16T10:16:36.705Z,5.05
2022-08-16T10:19:40.582Z,5.03
2022-08-16T10:22:44.665Z,4.65
2022-08-16T10:27:17.190Z,4.20
2022-08-16T10:29:08.497Z,4.60
2022-08-16T10:32:09.913Z,4.03
2022-08-16T10:35:11.468Z,4.10
2022-08-16T10:38:27.291Z,4.60
2022-08-16T10:41:29.757Z,4.97
2022-08-16T10:44:31.265Z,4.78
2022-08-16T10:47:38.745Z,4.57
2022-08-16T10:50:40.499Z,3.92
2022-08-16T10:53:42.203Z,3.90
2022-08-16T10:56:55.456Z,4.00
2022-08-16T10:59:58.692Z,3.97
2022-08-16T11:03:04.123Z,3.78
2022-08-16T11:06:11.984Z,3.80
2022-08-16T11:09:25.313Z,3.80
2022-08-16T11:12:30.221Z,3.92
2022-08-16T11:15:34.477Z,3.80
2022-08-16T11:19:03.547Z,3.53
2022-08-16T11:22:23.185Z,3.70
2022-08-16T11:32:10.407Z,3.72
2022-08-16T11:35:43.364Z,3.65
2022-08-16T11:38:51.553Z,3.80
2022-08-16T11:41:59.324Z,3.97
2022-08-16T11:45:00.813Z,3.20
2022-08-16T11:48:04.773Z,3.63
2022-08-16T11:51:06.443Z,3.80
2022-08-16T11:54:09.043Z,3.90
2022-08-16T11:57:23.344Z,3.30
2022-08-16T12:00:49.729Z,3.65
2022-08-16T12:03:48.370Z,4.18
2022-08-16T12:06:50.398Z,4.10
2022-08-16T12:09:55.846Z,3.30
2022-08-16T12:12:57.991Z,3.50
2022-08-16T12:16:04.843Z,3.53
2022-08-16T12:19:10.566Z,3.67
2022-08-16T12:22:19.292Z,3.50
2022-08-16T12:25:24.067Z,3.70
2022-08-16T12:28:55.045Z,3.72
2022-08-16T12:32:00.434Z,3.90
2022-08-16T12:35:15.372Z,3.72
2022-08-16T12:38:40.940Z,3.30
2022-08-16T12:41:39.461Z,3.70
2022-08-16T12:44:46.698Z,3.95
2022-08-16T12:48:32.904Z,3.60
2022-08-16T12:51:57.744Z,3.85
2022-08-16T12:54:56.313Z,3.90
2022-08-16T12:58:00.459Z,3.60
2022-08-16T13:01:02.328Z,3.83
2022-08-16T13:04:20.252Z,3.70
2022-08-16T13:07:27.190Z,3.90
2022-08-16T13:10:36.960Z,3.97
2022-08-16T13:13:39.778Z,3.80
2022-08-16T13:16:42.200Z,3.40
2022-08-16T13:23:11.426Z,3.78
2022-08-16T13:26:12.914Z,3.75
2022-08-16T13:29:19.326Z,3.83
2022-08-16T13:32:40.624Z,3.50
2022-08-16T13:35:44.293Z,3.38
2022-08-16T13:38:47.612Z,3.40
2022-08-16T13:41:53.896Z,3.63
2022-08-16T13:44:58.083Z,3.47
2022-08-16T13:47:59.929Z,3.47
2022-08-16T13:51:07.378Z,3.55
2022-08-16T13:54:09.193Z,3.20
2022-08-16T13:57:11.724Z,3.33
2022-08-16T14:00:19.584Z,3.65
2022-08-16T14:03:23.886Z,3.83
2022-08-16T14:06:25.444Z,3.60
2022-08-16T14:09:31.988Z,3.40
2022-08-16T14:12:34.666Z,3.38
2022-08-16T14:15:37.481Z,3.47
2022-08-16T14:18:43.419Z,3.45
2022-08-16T14:21:56.356Z,3.17
2022-08-16T14:25:11.736Z,3.60
2022-08-16T14:28:18.869Z,3.22
2022-08-16T14:31:27.622Z,3.50
2022-08-16T14:34:29.968Z,2.92
2022-08-16T14:37:32.735Z,3.20
2022-08-16T14:40:35.215Z,3.05
2022-08-16T14:43:37.475Z,2.97
2022-08-16T14:46:38.894Z,3.00
2022-08-16T14:49:41.337Z,3.35
2022-08-16T14:52:56.498Z,3.20
2022-08-16T14:55:58.906Z,3.05
2022-08-16T14:59:00.962Z,3.05
2022-08-16T15:02:04.148Z,3.20
2022-08-16T15:05:08.598Z,2.90
2022-08-16T15:08:11.123Z,2.80
2022-08-16T15:11:12.585Z,2.92
2022-08-16T15:14:14.086Z,3.15
2022-08-16T15:17:15.714Z,3.20
2022-08-16T15:20:18.208Z,2.78
2022-08-16T15:23:19.825Z,3.17
2022-08-16T15:26:29.640Z,3.10
2022-08-16T15:29:43.802Z,2.90
2022-08-16T15:32:46.881Z,3.20
2022-08-16T15:35:52.519Z,3.35
2022-08-16T15:39:05.781Z,3.15
2022-08-16T15:42:28.754Z,3.40
2022-08-16T15:45:53.667Z,3.40
2022-08-16T15:48:57.575Z,2.70
2022-08-16T15:52:01.129Z,3.17
2022-08-16T15:55:23.654Z,3.15
2022-08-16T15:58:35.167Z,3.05
2022-08-16T16:01:40.185Z,2.95
2022-08-16T16:04:41.872Z,2.83
2022-08-16T16:07:56.660Z,3.00
2022-08-16T16:11:01.073Z,2.67
2022-08-16T16:14:06.307Z,2.90
2022-08-16T16:17:11.332Z,2.90
2022-08-16T16:20:19.481Z,3.00
2022-08-16T16:23:24.816Z,3.00
2022-08-16T16:26:26.718Z,2.90
2022-08-16T16:29:28.446Z,2.60
2022-08-16T16:32:38.833Z,3.40
2022-08-16T16:35:41.851Z,3.00
2022-08-16T16:38:50.084Z,3.00
2022-08-16T16:41:52.023Z,2.85
2022-08-16T16:44:56.401Z,3.40
2022-08-16T16:48:12.481Z,3.15
2022-08-16T16:51:15.435Z,3.17
2022-08-16T16:54:25.581Z,3.80
2022-08-16T16:57:48.061Z,3.15
2022-08-16T17:00:51.852Z,2.90
2022-08-16T17:04:00.161Z,2.80
2022-08-16T17:07:01.958Z,2.65
2022-08-16T17:10:05.057Z,2.90
2022-08-16T17:13:07.593Z,2.60
2022-08-16T17:16:18.454Z,2.63
2022-08-16T17:19:20.650Z,2.70
2022-08-16T17:22:23.817Z,2.60
2022-08-16T17:25:36.247Z,2.70
2022-08-16T17:29:00.174Z,2.90
2022-08-16T17:32:02.416Z,2.63
2022-08-16T17:35:34.156Z,2.80
2022-08-16T17:38:43.909Z,2.45
2022-08-16T17:41:46.005Z,2.80
2022-08-16T17:44:47.516Z,3.20
2022-08-16T17:47:50.001Z,3.10
2022-08-16T17:50:54.862Z,3.50
2022-08-16T17:53:56.673Z,3.40
2022-08-16T17:57:00.801Z,3.20
2022-08-16T18:00:07.479Z,3.40
2022-08-16T18:03:17.270Z,3.25
2022-08-16T18:06:39.813Z,3.08
2022-08-16T18:09:42.055Z,3.58
2022-08-16T18:12:54.261Z,3.00
2022-08-16T18:15:57.709Z,3.13
2022-08-16T18:19:00.022Z,3.28
2022-08-16T18:22:20.050Z,3.30
2022-08-16T18:25:21.672Z,3.38
2022-08-16T18:28:24.754Z,3.15
2022-08-16T18:31:26.678Z,3.00
2022-08-16T18:34:28.155Z,2.92
2022-08-16T18:37:29.571Z,3.00
2022-08-16T18:40:35.127Z,3.17
2022-08-16T18:44:24.342Z,3.72
2022-08-16T18:46:58.001Z,3.92
2022-08-16T18:49:59.697Z,4.63
2022-08-16T18:53:05.255Z,3.65
2022-08-16T18:56:06.852Z,3.50
2022-08-16T18:59:08.565Z,3.58
2022-08-16T19:02:09.994Z,3.33
2022-08-16T19:05:33.963Z,3.08
2022-08-16T19:08:35.712Z,3.50
2022-08-16T19:11:37.153Z,3.80
2022-08-16T19:14:38.584Z,3.60
2022-08-16T19:17:39.996Z,3.42
2022-08-16T19:20:44.020Z,4.00
2022-08-16T19:23:45.611Z,4.00
2022-08-16T19:26:47.077Z,4.43
2022-08-16T19:29:49.138Z,4.07
2022-08-16T19:32:50.840Z,4.15
2022-08-16T19:35:52.413Z,4.15
2022-08-16T19:38:53.860Z,4.13
2022-08-16T19:41:55.477Z,4.30
2022-08-16T19:44:59.205Z,3.95
2022-08-16T19:48:03.549Z,4.65
2022-08-16T19:51:05.430Z,5.07
2022-08-16T19:54:06.836Z,4.88
2022-08-16T19:57:08.397Z,5.00
2022-08-16T20:00:14.537Z,4.60
2022-08-16T20:03:21.933Z,4.40
2022-08-16T20:06:37.922Z,4.75
2022-08-16T20:09:40.662Z,4.60
2022-08-16T20:12:43.324Z,5.00
2022-08-16T20:16:04.063Z,4.45
2022-08-16T20:19:05.548Z,4.47
2022-08-16T20:22:52.055Z,4.38
2022-08-16T20:25:49.883Z,4.13
2022-08-16T20:28:53.947Z,4.43
2022-08-16T20:31:56.526Z,4.50
2022-08-16T20:34:58.272Z,4.75
2022-08-16T20:38:01.657Z,5.43
2022-08-16T20:41:03.268Z,4.97
2022-08-16T20:44:04.668Z,5.32
2022-08-16T20:47:10.195Z,5.32
2022-08-16T20:50:11.723Z,6.00
2022-08-16T20:53:13.127Z,5.32
2022-08-16T20:56:14.571Z,5.68
2022-08-16T20:59:16.194Z,5.25
2022-08-16T21:02:24.002Z,5.60
2022-08-16T21:05:31.009Z,6.10
2022-08-16T21:08:52.369Z,6.20
2022-08-16T21:11:56.912Z,6.03
2022-08-16T21:15:02.502Z,5.78
2022-08-16T21:18:04.996Z,5.43
2022-08-16T21:21:06.601Z,5.20
2022-08-16T21:24:08.072Z,5.22
2022-08-16T21:27:10.125Z,5.80
2022-08-16T21:30:12.714Z,5.10
2022-08-16T21:33:19.666Z,5.20
2022-08-16T21:36:35.516Z,4.93
2022-08-16T21:39:37.867Z,4.85
2022-08-16T21:42:41.736Z,5.50
2022-08-16T21:45:44.568Z,5.60
2022-08-16T21:48:46.038Z,5.40
2022-08-16T21:51:47.462Z,5.23
2022-08-16T21:54:50.357Z,5.00
2022-08-16T21:57:55.504Z,5.03
2022-08-16T22:00:57.006Z,5.10
2022-08-16T22:04:35.712Z,4.88
2022-08-16T22:07:20.474Z,4.78
2022-08-16T22:11:06.872Z,4.60
2022-08-16T22:13:58.322Z,5.10
2022-08-16T22:17:00.880Z,4.97
2022-08-16T22:20:05.138Z,4.67
2022-08-16T22:23:13.552Z,4.70
2022-08-16T22:26:15.666Z,5.20
2022-08-16T22:29:17.114Z,5.03
2022-08-16T22:32:18.526Z,4.93
2022-08-16T22:35:19.985Z,5.20
2022-08-16T22:38:54.195Z,4.50
2022-08-16T22:41:45.488Z,4.20
2022-08-16T22:44:47.322Z,4.07
2022-08-16T22:47:49.025Z,4.10
2022-08-16T22:50:51.344Z,4.23
2022-08-16T22:53:53.291Z,4.60
2022-08-16T22:56:57.240Z,4.63
2022-08-16T22:59:58.657Z,4.60
2022-08-16T23:03:13.894Z,4.53
2022-08-16T23:06:16.770Z,4.37
2022-08-16T23:09:18.290Z,3.90
2022-08-16T23:12:19.730Z,4.30
2022-08-16T23:15:39.412Z,3.73
2022-08-16T23:18:41.529Z,3.60
2022-08-16T23:21:46.451Z,4.00
2022-08-16T23:24:56.258Z,3.93
2022-08-16T23:27:58.320Z,4.13
2022-08-16T23:30:59.913Z,3.60
2022-08-16T23:34:01.901Z,4.00
2022-08-16T23:37:03.429Z,3.83
2022-08-16T23:40:06.865Z,3.87
2022-08-16T23:43:12.914Z,3.90
2022-08-16T23:46:17.876Z,3.90
2022-08-16T23:49:56.774Z,4.10
2022-08-16T23:53:14.756Z,4.17
2022-08-16T23:56:19.657Z,3.70
2022-08-16T23:59:21.071Z,3.80
